sensor_id;sensor_type;location;lat;lon;timestamp;P1;durP1;ratioP1;P2;durP2;ratioP2
23730;SDS011;12046;44.702;10.622;2023-06-04T00:02:04;13.00;;;11.70;;
23730;SDS011;12046;44.702;10.622;2023-06-04T00:04:30;10.98;;;9.50;;
23730;SDS011;12046;44.702;10.622;2023-06-04T00:06:55;10.60;;;9.52;;
23730;SDS011;12046;44.702;10.622;2023-06-04T00:09:21;11.52;;;8.98;;
23730;SDS011;12046;44.702;10.622;2023-06-04T00:11:47;10.52;;;9.50;;
23730;SDS011;12046;44.702;10.622;2023-06-04T00:14:13;10.80;;;9.45;;
23730;SDS011;12046;44.702;10.622;2023-06-04T00:16:40;9.32;;;8.27;;
23730;SDS011;12046;44.702;10.622;2023-06-04T00:19:06;8.40;;;7.53;;
23730;SDS011;12046;44.702;10.622;2023-06-04T00:21:32;9.82;;;8.90;;
23730;SDS011;12046;44.702;10.622;2023-06-04T00:23:58;9.80;;;7.85;;
23730;SDS011;12046;44.702;10.622;2023-06-04T00:26:25;10.35;;;8.73;;
23730;SDS011;12046;44.702;10.622;2023-06-04T00:28:51;9.20;;;7.93;;
23730;SDS011;12046;44.702;10.622;2023-06-04T00:31:17;8.48;;;7.63;;
23730;SDS011;12046;44.702;10.622;2023-06-04T00:33:42;14.45;;;12.75;;
23730;SDS011;12046;44.702;10.622;2023-06-04T00:36:08;14.27;;;12.88;;
23730;SDS011;12046;44.702;10.622;2023-06-04T00:38:34;13.68;;;12.23;;
23730;SDS011;12046;44.702;10.622;2023-06-04T00:41:00;11.90;;;10.68;;
23730;SDS011;12046;44.702;10.622;2023-06-04T00:43:25;12.77;;;11.40;;
23730;SDS011;12046;44.702;10.622;2023-06-04T00:45:54;13.70;;;11.77;;
23730;SDS011;12046;44.702;10.622;2023-06-04T00:48:20;11.60;;;10.50;;
23730;SDS011;12046;44.702;10.622;2023-06-04T00:50:46;11.48;;;9.68;;
23730;SDS011;12046;44.702;10.622;2023-06-04T00:53:13;12.15;;;10.35;;
23730;SDS011;12046;44.702;10.622;2023-06-04T00:55:39;10.77;;;9.80;;
23730;SDS011;12046;44.702;10.622;2023-06-04T00:58:06;10.38;;;9.48;;
23730;SDS011;12046;44.702;10.622;2023-06-04T01:03:12;15.45;;;13.82;;
23730;SDS011;12046;44.702;10.622;2023-06-04T01:08:44;18.67;;;16.40;;
23730;SDS011;12046;44.702;10.622;2023-06-04T01:11:13;18.05;;;16.02;;
23730;SDS011;12046;44.702;10.622;2023-06-04T01:13:39;15.98;;;14.38;;
23730;SDS011;12046;44.702;10.622;2023-06-04T01:16:11;15.95;;;13.20;;
23730;SDS011;12046;44.702;10.622;2023-06-04T01:18:44;16.00;;;14.30;;
23730;SDS011;12046;44.702;10.622;2023-06-04T01:21:14;15.45;;;13.90;;
23730;SDS011;12046;44.702;10.622;2023-06-04T01:23:49;17.80;;;16.10;;
23730;SDS011;12046;44.702;10.622;2023-06-04T01:26:26;19.75;;;15.80;;
23730;SDS011;12046;44.702;10.622;2023-06-04T01:28:55;19.33;;;17.33;;
23730;SDS011;12046;44.702;10.622;2023-06-04T01:31:21;19.23;;;17.23;;
23730;SDS011;12046;44.702;10.622;2023-06-04T01:34:00;17.45;;;15.38;;
23730;SDS011;12046;44.702;10.622;2023-06-04T01:36:30;20.73;;;14.95;;
23730;SDS011;12046;44.702;10.622;2023-06-04T01:38:57;17.98;;;16.17;;
23730;SDS011;12046;44.702;10.622;2023-06-04T01:41:24;17.73;;;15.98;;
23730;SDS011;12046;44.702;10.622;2023-06-04T01:43:53;21.08;;;17.80;;
23730;SDS011;12046;44.702;10.622;2023-06-04T01:46:18;21.10;;;18.90;;
23730;SDS011;12046;44.702;10.622;2023-06-04T01:48:44;19.50;;;17.40;;
23730;SDS011;12046;44.702;10.622;2023-06-04T01:51:16;22.50;;;20.02;;
23730;SDS011;12046;44.702;10.622;2023-06-04T01:53:42;22.05;;;19.70;;
23730;SDS011;12046;44.702;10.622;2023-06-04T01:56:08;25.98;;;20.08;;
23730;SDS011;12046;44.702;10.622;2023-06-04T01:58:34;31.40;;;21.80;;
23730;SDS011;12046;44.702;10.622;2023-06-04T02:01:00;33.40;;;23.83;;
23730;SDS011;12046;44.702;10.622;2023-06-04T02:03:28;34.10;;;23.58;;
23730;SDS011;12046;44.702;10.622;2023-06-04T02:05:57;36.03;;;23.92;;
23730;SDS011;12046;44.702;10.622;2023-06-04T02:08:23;36.97;;;24.42;;
23730;SDS011;12046;44.702;10.622;2023-06-04T02:10:50;36.50;;;25.70;;
23730;SDS011;12046;44.702;10.622;2023-06-04T02:13:16;32.95;;;21.77;;
23730;SDS011;12046;44.702;10.622;2023-06-04T02:15:41;30.52;;;21.08;;
23730;SDS011;12046;44.702;10.622;2023-06-04T02:18:25;31.55;;;20.13;;
23730;SDS011;12046;44.702;10.622;2023-06-04T02:20:51;31.08;;;19.35;;
23730;SDS011;12046;44.702;10.622;2023-06-04T02:23:18;25.92;;;17.98;;
23730;SDS011;12046;44.702;10.622;2023-06-04T02:25:45;31.00;;;21.10;;
23730;SDS011;12046;44.702;10.622;2023-06-04T02:28:11;32.25;;;22.95;;
23730;SDS011;12046;44.702;10.622;2023-06-04T02:30:38;36.08;;;21.83;;
23730;SDS011;12046;44.702;10.622;2023-06-04T02:33:03;31.35;;;22.98;;
23730;SDS011;12046;44.702;10.622;2023-06-04T02:35:31;29.88;;;20.58;;
23730;SDS011;12046;44.702;10.622;2023-06-04T02:37:57;26.00;;;20.02;;
23730;SDS011;12046;44.702;10.622;2023-06-04T02:40:23;32.00;;;21.10;;
23730;SDS011;12046;44.702;10.622;2023-06-04T02:42:50;26.25;;;19.48;;
23730;SDS011;12046;44.702;10.622;2023-06-04T02:45:20;28.83;;;19.23;;
23730;SDS011;12046;44.702;10.622;2023-06-04T02:47:56;27.50;;;19.55;;
23730;SDS011;12046;44.702;10.622;2023-06-04T02:50:22;25.33;;;19.17;;
23730;SDS011;12046;44.702;10.622;2023-06-04T02:52:48;25.58;;;19.60;;
23730;SDS011;12046;44.702;10.622;2023-06-04T02:55:16;26.35;;;18.40;;
23730;SDS011;12046;44.702;10.622;2023-06-04T02:57:45;23.75;;;16.35;;
23730;SDS011;12046;44.702;10.622;2023-06-04T03:00:16;21.67;;;16.20;;
23730;SDS011;12046;44.702;10.622;2023-06-04T03:02:48;25.65;;;17.48;;
23730;SDS011;12046;44.702;10.622;2023-06-04T03:05:14;25.85;;;17.52;;
23730;SDS011;12046;44.702;10.622;2023-06-04T03:07:45;24.98;;;17.95;;
23730;SDS011;12046;44.702;10.622;2023-06-04T03:10:12;22.02;;;16.80;;
23730;SDS011;12046;44.702;10.622;2023-06-04T03:12:39;20.10;;;15.52;;
23730;SDS011;12046;44.702;10.622;2023-06-04T03:15:05;22.95;;;16.27;;
23730;SDS011;12046;44.702;10.622;2023-06-04T03:17:34;22.52;;;15.57;;
23730;SDS011;12046;44.702;10.622;2023-06-04T03:20:00;17.05;;;13.65;;
23730;SDS011;12046;44.702;10.622;2023-06-04T03:22:47;16.20;;;12.52;;
23730;SDS011;12046;44.702;10.622;2023-06-04T03:25:15;11.68;;;10.45;;
23730;SDS011;12046;44.702;10.622;2023-06-04T03:27:40;11.43;;;9.40;;
23730;SDS011;12046;44.702;10.622;2023-06-04T03:30:09;13.75;;;10.52;;
23730;SDS011;12046;44.702;10.622;2023-06-04T03:32:41;13.45;;;9.68;;
23730;SDS011;12046;44.702;10.622;2023-06-04T03:35:10;14.00;;;11.10;;
23730;SDS011;12046;44.702;10.622;2023-06-04T03:37:39;12.20;;;10.23;;
23730;SDS011;12046;44.702;10.622;2023-06-04T03:40:04;13.40;;;11.18;;
23730;SDS011;12046;44.702;10.622;2023-06-04T03:42:32;15.25;;;11.52;;
23730;SDS011;12046;44.702;10.622;2023-06-04T03:45:00;15.70;;;11.40;;
23730;SDS011;12046;44.702;10.622;2023-06-04T03:47:26;15.52;;;11.57;;
23730;SDS011;12046;44.702;10.622;2023-06-04T03:49:52;16.17;;;12.35;;
23730;SDS011;12046;44.702;10.622;2023-06-04T03:52:20;22.33;;;15.70;;
23730;SDS011;12046;44.702;10.622;2023-06-04T03:54:46;22.15;;;15.98;;
23730;SDS011;12046;44.702;10.622;2023-06-04T03:57:12;21.02;;;15.00;;
23730;SDS011;12046;44.702;10.622;2023-06-04T03:59:41;14.75;;;13.07;;
23730;SDS011;12046;44.702;10.622;2023-06-04T04:02:07;17.67;;;13.70;;
23730;SDS011;12046;44.702;10.622;2023-06-04T04:04:36;15.07;;;12.82;;
23730;SDS011;12046;44.702;10.622;2023-06-04T04:07:02;17.05;;;12.48;;
23730;SDS011;12046;44.702;10.622;2023-06-04T04:09:34;14.88;;;13.02;;
23730;SDS011;12046;44.702;10.622;2023-06-04T04:12:06;15.48;;;12.82;;
23730;SDS011;12046;44.702;10.622;2023-06-04T04:14:32;17.85;;;13.05;;
23730;SDS011;12046;44.702;10.622;2023-06-04T04:19:57;16.15;;;13.88;;
23730;SDS011;12046;44.702;10.622;2023-06-04T04:26:18;16.83;;;13.68;;
23730;SDS011;12046;44.702;10.622;2023-06-04T04:31:46;20.38;;;16.20;;
23730;SDS011;12046;44.702;10.622;2023-06-04T04:34:18;16.70;;;14.70;;
23730;SDS011;12046;44.702;10.622;2023-06-04T04:40:46;16.58;;;12.90;;
23730;SDS011;12046;44.702;10.622;2023-06-04T04:54:28;14.20;;;11.38;;
23730;SDS011;12046;44.702;10.622;2023-06-04T04:57:35;15.70;;;12.00;;
23730;SDS011;12046;44.702;10.622;2023-06-04T05:00:02;13.50;;;12.10;;
23730;SDS011;12046;44.702;10.622;2023-06-04T05:02:34;12.93;;;11.48;;
23730;SDS011;12046;44.702;10.622;2023-06-04T05:05:09;12.85;;;11.55;;
23730;SDS011;12046;44.702;10.622;2023-06-04T05:07:42;12.37;;;10.50;;
23730;SDS011;12046;44.702;10.622;2023-06-04T05:15:31;9.80;;;8.88;;
23730;SDS011;12046;44.702;10.622;2023-06-04T05:18:00;9.60;;;8.38;;
23730;SDS011;12046;44.702;10.622;2023-06-04T05:20:36;8.98;;;7.25;;
23730;SDS011;12046;44.702;10.622;2023-06-04T05:23:02;7.68;;;6.93;;
23730;SDS011;12046;44.702;10.622;2023-06-04T05:25:35;8.27;;;7.47;;
23730;SDS011;12046;44.702;10.622;2023-06-04T05:28:01;10.20;;;7.95;;
23730;SDS011;12046;44.702;10.622;2023-06-04T05:30:28;8.00;;;7.20;;
23730;SDS011;12046;44.702;10.622;2023-06-04T05:32:54;11.73;;;8.00;;
23730;SDS011;12046;44.702;10.622;2023-06-04T05:35:22;9.93;;;8.20;;
23730;SDS011;12046;44.702;10.622;2023-06-04T05:37:48;9.93;;;8.13;;
23730;SDS011;12046;44.702;10.622;2023-06-04T05:40:21;8.10;;;7.38;;
23730;SDS011;12046;44.702;10.622;2023-06-04T05:42:47;9.98;;;7.82;;
23730;SDS011;12046;44.702;10.622;2023-06-04T05:48:27;9.30;;;8.38;;
23730;SDS011;12046;44.702;10.622;2023-06-04T05:50:53;11.80;;;8.63;;
23730;SDS011;12046;44.702;10.622;2023-06-04T05:53:21;12.23;;;8.82;;
23730;SDS011;12046;44.702;10.622;2023-06-04T05:55:47;9.55;;;8.55;;
23730;SDS011;12046;44.702;10.622;2023-06-04T05:58:34;10.38;;;9.05;;
23730;SDS011;12046;44.702;10.622;2023-06-04T06:01:06;16.23;;;12.50;;
23730;SDS011;12046;44.702;10.622;2023-06-04T06:03:32;15.40;;;11.90;;
23730;SDS011;12046;44.702;10.622;2023-06-04T06:06:00;11.90;;;10.70;;
23730;SDS011;12046;44.702;10.622;2023-06-04T06:11:29;11.50;;;9.57;;
23730;SDS011;12046;44.702;10.622;2023-06-04T06:19:39;9.60;;;8.60;;
23730;SDS011;12046;44.702;10.622;2023-06-04T06:22:11;11.48;;;10.27;;
23730;SDS011;12046;44.702;10.622;2023-06-04T06:27:41;12.93;;;10.82;;
23730;SDS011;12046;44.702;10.622;2023-06-04T06:30:22;14.38;;;12.95;;
23730;SDS011;12046;44.702;10.622;2023-06-04T06:35:55;11.18;;;9.13;;
23730;SDS011;12046;44.702;10.622;2023-06-04T06:38:24;9.10;;;7.80;;
23730;SDS011;12046;44.702;10.622;2023-06-04T06:51:29;15.20;;;12.45;;
23730;SDS011;12046;44.702;10.622;2023-06-04T06:59:32;14.15;;;12.75;;
23730;SDS011;12046;44.702;10.622;2023-06-04T07:23:15;14.02;;;12.70;;
23730;SDS011;12046;44.702;10.622;2023-06-04T07:25:41;15.05;;;13.65;;
23730;SDS011;12046;44.702;10.622;2023-06-04T07:28:33;12.90;;;11.55;;
23730;SDS011;12046;44.702;10.622;2023-06-04T07:30:59;15.93;;;14.38;;
23730;SDS011;12046;44.702;10.622;2023-06-04T07:33:25;15.43;;;13.85;;
23730;SDS011;12046;44.702;10.622;2023-06-04T07:39:20;18.73;;;17.02;;
23730;SDS011;12046;44.702;10.622;2023-06-04T07:41:54;20.75;;;18.67;;
23730;SDS011;12046;44.702;10.622;2023-06-04T07:44:38;17.65;;;15.77;;
23730;SDS011;12046;44.702;10.622;2023-06-04T07:47:04;17.80;;;16.08;;
23730;SDS011;12046;44.702;10.622;2023-06-04T07:49:30;15.65;;;14.23;;
23730;SDS011;12046;44.702;10.622;2023-06-04T07:51:56;16.17;;;14.43;;
23730;SDS011;12046;44.702;10.622;2023-06-04T08:03:35;16.75;;;15.15;;
23730;SDS011;12046;44.702;10.622;2023-06-04T08:06:04;16.90;;;15.15;;
23730;SDS011;12046;44.702;10.622;2023-06-04T08:08:45;14.73;;;13.23;;
23730;SDS011;12046;44.702;10.622;2023-06-04T08:11:19;14.00;;;12.70;;
23730;SDS011;12046;44.702;10.622;2023-06-04T08:13:48;15.82;;;14.30;;
23730;SDS011;12046;44.702;10.622;2023-06-04T08:16:17;15.98;;;14.55;;
23730;SDS011;12046;44.702;10.622;2023-06-04T08:18:42;14.32;;;13.02;;
23730;SDS011;12046;44.702;10.622;2023-06-04T08:21:09;16.75;;;15.25;;
23730;SDS011;12046;44.702;10.622;2023-06-04T08:23:42;15.05;;;13.77;;
23730;SDS011;12046;44.702;10.622;2023-06-04T08:26:14;13.70;;;12.50;;
23730;SDS011;12046;44.702;10.622;2023-06-04T08:28:39;12.30;;;11.20;;
23730;SDS011;12046;44.702;10.622;2023-06-04T08:31:05;14.25;;;12.95;;
23730;SDS011;12046;44.702;10.622;2023-06-04T08:33:31;16.10;;;14.48;;
23730;SDS011;12046;44.702;10.622;2023-06-04T08:35:57;13.68;;;12.38;;
23730;SDS011;12046;44.702;10.622;2023-06-04T08:38:23;13.95;;;12.55;;
23730;SDS011;12046;44.702;10.622;2023-06-04T08:40:49;15.30;;;13.70;;
23730;SDS011;12046;44.702;10.622;2023-06-04T08:43:30;14.55;;;13.32;;
23730;SDS011;12046;44.702;10.622;2023-06-04T08:46:00;15.25;;;13.95;;
23730;SDS011;12046;44.702;10.622;2023-06-04T08:48:27;12.90;;;11.68;;
23730;SDS011;12046;44.702;10.622;2023-06-04T08:50:55;13.98;;;12.68;;
23730;SDS011;12046;44.702;10.622;2023-06-04T08:53:24;11.98;;;10.98;;
23730;SDS011;12046;44.702;10.622;2023-06-04T08:55:50;15.50;;;13.98;;
23730;SDS011;12046;44.702;10.622;2023-06-04T08:58:17;16.25;;;14.70;;
23730;SDS011;12046;44.702;10.622;2023-06-04T09:00:44;14.15;;;12.77;;
23730;SDS011;12046;44.702;10.622;2023-06-04T09:03:10;16.00;;;14.55;;
23730;SDS011;12046;44.702;10.622;2023-06-04T09:05:37;15.00;;;13.60;;
23730;SDS011;12046;44.702;10.622;2023-06-04T09:08:05;16.35;;;14.95;;
23730;SDS011;12046;44.702;10.622;2023-06-04T09:10:33;13.27;;;11.95;;
23730;SDS011;12046;44.702;10.622;2023-06-04T09:13:01;14.10;;;12.70;;
23730;SDS011;12046;44.702;10.622;2023-06-04T09:15:28;13.73;;;12.45;;
23730;SDS011;12046;44.702;10.622;2023-06-04T09:17:54;17.17;;;15.75;;
23730;SDS011;12046;44.702;10.622;2023-06-04T09:20:20;15.73;;;14.10;;
23730;SDS011;12046;44.702;10.622;2023-06-04T09:22:47;15.63;;;14.40;;
23730;SDS011;12046;44.702;10.622;2023-06-04T09:25:23;15.68;;;14.27;;
23730;SDS011;12046;44.702;10.622;2023-06-04T09:27:53;15.02;;;13.82;;
23730;SDS011;12046;44.702;10.622;2023-06-04T09:30:21;12.95;;;11.75;;
23730;SDS011;12046;44.702;10.622;2023-06-04T09:32:47;11.60;;;10.50;;
23730;SDS011;12046;44.702;10.622;2023-06-04T09:35:16;11.05;;;10.15;;
23730;SDS011;12046;44.702;10.622;2023-06-04T09:37:53;10.48;;;9.55;;
23730;SDS011;12046;44.702;10.622;2023-06-04T09:40:20;12.32;;;11.13;;
23730;SDS011;12046;44.702;10.622;2023-06-04T09:42:48;13.57;;;11.55;;
23730;SDS011;12046;44.702;10.622;2023-06-04T09:45:28;12.65;;;10.40;;
23730;SDS011;12046;44.702;10.622;2023-06-04T09:48:04;12.95;;;11.75;;
23730;SDS011;12046;44.702;10.622;2023-06-04T09:50:33;11.68;;;10.00;;
23730;SDS011;12046;44.702;10.622;2023-06-04T09:53:12;11.85;;;10.73;;
23730;SDS011;12046;44.702;10.622;2023-06-04T09:56:00;11.77;;;10.52;;
23730;SDS011;12046;44.702;10.622;2023-06-04T09:58:29;12.15;;;11.25;;
23730;SDS011;12046;44.702;10.622;2023-06-04T10:00:56;11.25;;;9.95;;
23730;SDS011;12046;44.702;10.622;2023-06-04T10:03:30;9.95;;;9.05;;
23730;SDS011;12046;44.702;10.622;2023-06-04T10:05:58;9.65;;;8.93;;
23730;SDS011;12046;44.702;10.622;2023-06-04T10:08:26;8.45;;;7.75;;
23730;SDS011;12046;44.702;10.622;2023-06-04T10:10:55;8.73;;;7.82;;
23730;SDS011;12046;44.702;10.622;2023-06-04T10:13:27;8.82;;;8.02;;
23730;SDS011;12046;44.702;10.622;2023-06-04T10:15:58;7.93;;;7.18;;
23730;SDS011;12046;44.702;10.622;2023-06-04T10:18:26;7.90;;;7.20;;
23730;SDS011;12046;44.702;10.622;2023-06-04T10:20:56;8.07;;;7.35;;
23730;SDS011;12046;44.702;10.622;2023-06-04T10:23:23;8.27;;;7.47;;
23730;SDS011;12046;44.702;10.622;2023-06-04T10:25:50;8.73;;;7.93;;
23730;SDS011;12046;44.702;10.622;2023-06-04T10:28:23;8.63;;;7.72;;
23730;SDS011;12046;44.702;10.622;2023-06-04T10:30:49;9.20;;;8.15;;
23730;SDS011;12046;44.702;10.622;2023-06-04T10:33:19;7.40;;;6.70;;
23730;SDS011;12046;44.702;10.622;2023-06-04T10:35:53;10.43;;;9.52;;
23730;SDS011;12046;44.702;10.622;2023-06-04T10:38:20;8.55;;;7.85;;
23730;SDS011;12046;44.702;10.622;2023-06-04T10:40:47;8.30;;;7.50;;
23730;SDS011;12046;44.702;10.622;2023-06-04T10:43:13;8.93;;;8.23;;
23730;SDS011;12046;44.702;10.622;2023-06-04T10:45:41;9.45;;;8.57;;
23730;SDS011;12046;44.702;10.622;2023-06-04T10:48:12;9.90;;;9.10;;
23730;SDS011;12046;44.702;10.622;2023-06-04T10:50:48;8.73;;;7.93;;
23730;SDS011;12046;44.702;10.622;2023-06-04T10:53:18;9.75;;;8.82;;
23730;SDS011;12046;44.702;10.622;2023-06-04T10:55:48;8.43;;;7.57;;
23730;SDS011;12046;44.702;10.622;2023-06-04T10:58:14;9.98;;;7.85;;
23730;SDS011;12046;44.702;10.622;2023-06-04T11:00:41;10.15;;;9.13;;
23730;SDS011;12046;44.702;10.622;2023-06-04T11:03:11;9.15;;;8.43;;
23730;SDS011;12046;44.702;10.622;2023-06-04T11:05:41;7.88;;;7.18;;
23730;SDS011;12046;44.702;10.622;2023-06-04T11:08:08;9.88;;;8.93;;
23730;SDS011;12046;44.702;10.622;2023-06-04T11:10:40;8.85;;;8.05;;
23730;SDS011;12046;44.702;10.622;2023-06-04T11:13:08;10.57;;;7.43;;
23730;SDS011;12046;44.702;10.622;2023-06-04T11:15:43;7.85;;;7.15;;
23730;SDS011;12046;44.702;10.622;2023-06-04T11:18:19;9.10;;;8.25;;
23730;SDS011;12046;44.702;10.622;2023-06-04T11:20:57;7.43;;;6.40;;
23730;SDS011;12046;44.702;10.622;2023-06-04T11:23:42;8.88;;;7.45;;
23730;SDS011;12046;44.702;10.622;2023-06-04T11:26:08;8.85;;;7.28;;
23730;SDS011;12046;44.702;10.622;2023-06-04T11:28:34;7.60;;;6.90;;
23730;SDS011;12046;44.702;10.622;2023-06-04T11:31:00;7.13;;;6.53;;
23730;SDS011;12046;44.702;10.622;2023-06-04T11:33:45;9.30;;;8.40;;
23730;SDS011;12046;44.702;10.622;2023-06-04T11:36:27;8.35;;;7.55;;
23730;SDS011;12046;44.702;10.622;2023-06-04T11:39:00;9.75;;;6.80;;
23730;SDS011;12046;44.702;10.622;2023-06-04T11:41:28;6.35;;;5.85;;
23730;SDS011;12046;44.702;10.622;2023-06-04T11:43:55;7.43;;;6.65;;
23730;SDS011;12046;44.702;10.622;2023-06-04T11:46:22;7.68;;;7.00;;
23730;SDS011;12046;44.702;10.622;2023-06-04T11:48:55;7.47;;;6.70;;
23730;SDS011;12046;44.702;10.622;2023-06-04T11:51:20;7.72;;;6.70;;
23730;SDS011;12046;44.702;10.622;2023-06-04T11:53:47;8.15;;;7.13;;
23730;SDS011;12046;44.702;10.622;2023-06-04T11:56:13;6.60;;;6.00;;
23730;SDS011;12046;44.702;10.622;2023-06-04T11:58:40;6.45;;;5.95;;
23730;SDS011;12046;44.702;10.622;2023-06-04T12:01:06;6.40;;;5.80;;
23730;SDS011;12046;44.702;10.622;2023-06-04T12:03:37;6.82;;;5.50;;
23730;SDS011;12046;44.702;10.622;2023-06-04T12:06:11;7.80;;;6.60;;
23730;SDS011;12046;44.702;10.622;2023-06-04T12:08:48;7.68;;;6.88;;
23730;SDS011;12046;44.702;10.622;2023-06-04T12:11:33;7.68;;;6.95;;
23730;SDS011;12046;44.702;10.622;2023-06-04T12:14:00;6.45;;;5.85;;
23730;SDS011;12046;44.702;10.622;2023-06-04T12:16:29;11.95;;;6.68;;
23730;SDS011;12046;44.702;10.622;2023-06-04T12:21:35;8.30;;;5.72;;
23730;SDS011;12046;44.702;10.622;2023-06-04T12:26:40;7.32;;;6.28;;
23730;SDS011;12046;44.702;10.622;2023-06-04T12:29:12;10.48;;;5.95;;
23730;SDS011;12046;44.702;10.622;2023-06-04T12:31:47;6.40;;;5.80;;
23730;SDS011;12046;44.702;10.622;2023-06-04T12:34:13;6.55;;;5.85;;
23730;SDS011;12046;44.702;10.622;2023-06-04T12:36:39;6.00;;;5.50;;
23730;SDS011;12046;44.702;10.622;2023-06-04T12:39:06;6.30;;;5.70;;
23730;SDS011;12046;44.702;10.622;2023-06-04T12:41:35;6.22;;;5.43;;
23730;SDS011;12046;44.702;10.622;2023-06-04T12:44:00;6.35;;;5.55;;
23730;SDS011;12046;44.702;10.622;2023-06-04T12:46:27;5.90;;;5.25;;
23730;SDS011;12046;44.702;10.622;2023-06-04T12:48:53;6.55;;;5.93;;
23730;SDS011;12046;44.702;10.622;2023-06-04T12:51:20;6.38;;;4.97;;
23730;SDS011;12046;44.702;10.622;2023-06-04T12:53:47;6.90;;;6.20;;
23730;SDS011;12046;44.702;10.622;2023-06-04T12:56:13;6.30;;;5.65;;
23730;SDS011;12046;44.702;10.622;2023-06-04T12:58:42;6.00;;;5.50;;
23730;SDS011;12046;44.702;10.622;2023-06-04T13:01:08;7.00;;;6.30;;
23730;SDS011;12046;44.702;10.622;2023-06-04T13:03:36;6.00;;;5.20;;
23730;SDS011;12046;44.702;10.622;2023-06-04T13:06:05;6.30;;;5.80;;
23730;SDS011;12046;44.702;10.622;2023-06-04T13:08:31;6.03;;;5.40;;
23730;SDS011;12046;44.702;10.622;2023-06-04T13:10:58;6.88;;;5.53;;
23730;SDS011;12046;44.702;10.622;2023-06-04T13:13:24;5.82;;;5.28;;
23730;SDS011;12046;44.702;10.622;2023-06-04T13:15:50;6.28;;;5.72;;
23730;SDS011;12046;44.702;10.622;2023-06-04T13:18:16;5.93;;;5.35;;
23730;SDS011;12046;44.702;10.622;2023-06-04T13:20:46;8.80;;;5.80;;
23730;SDS011;12046;44.702;10.622;2023-06-04T13:23:20;6.30;;;5.72;;
23730;SDS011;12046;44.702;10.622;2023-06-04T13:25:49;8.00;;;5.43;;
23730;SDS011;12046;44.702;10.622;2023-06-04T13:28:15;9.20;;;5.45;;
23730;SDS011;12046;44.702;10.622;2023-06-04T13:30:42;5.63;;;5.22;;
23730;SDS011;12046;44.702;10.622;2023-06-04T13:33:09;6.15;;;5.55;;
23730;SDS011;12046;44.702;10.622;2023-06-04T13:35:35;6.15;;;5.60;;
23730;SDS011;12046;44.702;10.622;2023-06-04T13:38:04;6.25;;;5.65;;
23730;SDS011;12046;44.702;10.622;2023-06-04T13:40:40;6.25;;;5.00;;
23730;SDS011;12046;44.702;10.622;2023-06-04T13:43:08;9.05;;;6.25;;
23730;SDS011;12046;44.702;10.622;2023-06-04T13:45:39;7.05;;;5.90;;
23730;SDS011;12046;44.702;10.622;2023-06-04T13:48:10;6.63;;;5.70;;
23730;SDS011;12046;44.702;10.622;2023-06-04T13:50:36;6.38;;;5.65;;
23730;SDS011;12046;44.702;10.622;2023-06-04T13:53:01;6.78;;;5.97;;
23730;SDS011;12046;44.702;10.622;2023-06-04T13:55:30;7.55;;;5.10;;
23730;SDS011;12046;44.702;10.622;2023-06-04T13:57:56;5.45;;;4.68;;
23730;SDS011;12046;44.702;10.622;2023-06-04T14:00:22;7.43;;;4.97;;
23730;SDS011;12046;44.702;10.622;2023-06-04T14:02:51;6.68;;;4.70;;
23730;SDS011;12046;44.702;10.622;2023-06-04T14:05:17;5.97;;;5.18;;
23730;SDS011;12046;44.702;10.622;2023-06-04T14:07:43;7.78;;;5.60;;
23730;SDS011;12046;44.702;10.622;2023-06-04T14:10:12;5.63;;;5.13;;
23730;SDS011;12046;44.702;10.622;2023-06-04T14:12:38;6.15;;;5.65;;
23730;SDS011;12046;44.702;10.622;2023-06-04T14:15:09;6.13;;;5.63;;
23730;SDS011;12046;44.702;10.622;2023-06-04T14:17:37;5.75;;;5.22;;
23730;SDS011;12046;44.702;10.622;2023-06-04T14:20:03;6.38;;;5.78;;
23730;SDS011;12046;44.702;10.622;2023-06-04T14:22:37;11.65;;;6.20;;
23730;SDS011;12046;44.702;10.622;2023-06-04T14:25:06;6.10;;;5.50;;
23730;SDS011;12046;44.702;10.622;2023-06-04T14:27:33;8.48;;;5.53;;
23730;SDS011;12046;44.702;10.622;2023-06-04T14:30:00;4.93;;;4.53;;
23730;SDS011;12046;44.702;10.622;2023-06-04T14:32:27;6.05;;;5.45;;
23730;SDS011;12046;44.702;10.622;2023-06-04T14:34:53;5.78;;;4.90;;
23730;SDS011;12046;44.702;10.622;2023-06-04T14:37:23;6.13;;;5.53;;
23730;SDS011;12046;44.702;10.622;2023-06-04T14:39:51;6.93;;;6.10;;
23730;SDS011;12046;44.702;10.622;2023-06-04T14:42:17;5.50;;;4.97;;
23730;SDS011;12046;44.702;10.622;2023-06-04T14:44:45;5.82;;;5.20;;
23730;SDS011;12046;44.702;10.622;2023-06-04T14:47:11;6.00;;;5.40;;
23730;SDS011;12046;44.702;10.622;2023-06-04T14:49:36;6.30;;;4.88;;
23730;SDS011;12046;44.702;10.622;2023-06-04T14:52:02;5.55;;;4.95;;
23730;SDS011;12046;44.702;10.622;2023-06-04T14:54:40;4.40;;;4.05;;
23730;SDS011;12046;44.702;10.622;2023-06-04T14:57:05;4.93;;;4.47;;
23730;SDS011;12046;44.702;10.622;2023-06-04T14:59:31;5.30;;;4.80;;
23730;SDS011;12046;44.702;10.622;2023-06-04T15:02:00;7.05;;;5.22;;
23730;SDS011;12046;44.702;10.622;2023-06-04T15:04:26;5.28;;;4.78;;
23730;SDS011;12046;44.702;10.622;2023-06-04T15:06:55;5.57;;;4.28;;
23730;SDS011;12046;44.702;10.622;2023-06-04T15:09:21;4.82;;;4.43;;
23730;SDS011;12046;44.702;10.622;2023-06-04T15:11:49;5.32;;;4.80;;
23730;SDS011;12046;44.702;10.622;2023-06-04T15:14:15;6.28;;;4.50;;
23730;SDS011;12046;44.702;10.622;2023-06-04T15:16:43;4.28;;;3.88;;
23730;SDS011;12046;44.702;10.622;2023-06-04T15:19:09;6.68;;;4.18;;
23730;SDS011;12046;44.702;10.622;2023-06-04T15:21:35;4.20;;;3.80;;
23730;SDS011;12046;44.702;10.622;2023-06-04T15:24:01;3.92;;;3.50;;
23730;SDS011;12046;44.702;10.622;2023-06-04T15:26:27;4.25;;;3.80;;
23730;SDS011;12046;44.702;10.622;2023-06-04T15:28:53;3.80;;;3.50;;
23730;SDS011;12046;44.702;10.622;2023-06-04T15:31:22;6.05;;;4.18;;
23730;SDS011;12046;44.702;10.622;2023-06-04T15:33:48;4.70;;;3.92;;
23730;SDS011;12046;44.702;10.622;2023-06-04T15:36:14;6.43;;;5.05;;
23730;SDS011;12046;44.702;10.622;2023-06-04T15:38:43;6.22;;;4.75;;
23730;SDS011;12046;44.702;10.622;2023-06-04T15:41:09;5.97;;;5.05;;
23730;SDS011;12046;44.702;10.622;2023-06-04T15:43:37;6.13;;;4.85;;
23730;SDS011;12046;44.702;10.622;2023-06-04T15:46:03;8.05;;;3.88;;
23730;SDS011;12046;44.702;10.622;2023-06-04T15:48:29;6.85;;;3.80;;
23730;SDS011;12046;44.702;10.622;2023-06-04T15:50:55;4.18;;;3.45;;
23730;SDS011;12046;44.702;10.622;2023-06-04T15:53:21;3.95;;;3.55;;
23730;SDS011;12046;44.702;10.622;2023-06-04T15:55:48;5.20;;;3.40;;
23730;SDS011;12046;44.702;10.622;2023-06-04T15:58:14;3.55;;;2.70;;
23730;SDS011;12046;44.702;10.622;2023-06-04T16:00:40;3.22;;;2.80;;
23730;SDS011;12046;44.702;10.622;2023-06-04T16:03:06;3.90;;;2.67;;
23730;SDS011;12046;44.702;10.622;2023-06-04T16:05:32;2.50;;;2.30;;
23730;SDS011;12046;44.702;10.622;2023-06-04T16:07:58;2.88;;;2.47;;
23730;SDS011;12046;44.702;10.622;2023-06-04T16:10:23;3.45;;;2.70;;
23730;SDS011;12046;44.702;10.622;2023-06-04T16:12:49;3.03;;;2.65;;
23730;SDS011;12046;44.702;10.622;2023-06-04T16:15:18;4.85;;;3.17;;
23730;SDS011;12046;44.702;10.622;2023-06-04T16:17:46;3.45;;;2.65;;
23730;SDS011;12046;44.702;10.622;2023-06-04T16:20:16;2.90;;;2.38;;